createdAt,value
2023-02-20T00:00:31.396Z,98.24
2023-02-20T00:01:21.393Z,98.14
2023-02-20T00:02:11.489Z,97.94
2023-02-20T00:03:01.379Z,97.94
2023-02-20T00:03:51.424Z,97.94
2023-02-20T00:04:41.347Z,97.94
2023-02-20T00:05:31.345Z,98.03
2023-02-20T00:06:21.345Z,98.03
2023-02-20T00:07:11.356Z,98.14
2023-02-20T00:08:01.353Z,98.14
2023-02-20T00:08:51.312Z,98.14
2023-02-20T00:09:41.304Z,98.14
2023-02-20T00:10:31.288Z,97.94
2023-02-20T00:11:21.282Z,97.94
2023-02-20T00:12:11.284Z,97.94
2023-02-20T00:13:01.265Z,97.63
2023-02-20T00:13:51.259Z,97.52
2023-02-20T00:14:41.253Z,97.31
2023-02-20T00:15:31.261Z,97.17
2023-02-20T00:16:21.228Z,97.38
2023-02-20T00:17:11.225Z,97.27
2023-02-20T00:18:01.204Z,97.27
2023-02-20T00:18:51.183Z,97.38
2023-02-20T00:19:41.183Z,97.38
2023-02-20T00:20:31.162Z,97.27
2023-02-20T00:21:21.163Z,97.17
2023-02-20T00:22:11.181Z,97.38
2023-02-20T00:23:01.151Z,97.38
2023-02-20T00:23:51.124Z,97.38
2023-02-20T00:24:41.143Z,97.38
2023-02-20T00:25:31.112Z,97.38
2023-02-20T00:26:21.101Z,97.38
2023-02-20T00:27:11.111Z,97.27
2023-02-20T00:28:01.107Z,97.17
2023-02-20T00:28:51.073Z,97.27
2023-02-20T00:29:41.073Z,97.27
2023-02-20T00:30:31.156Z,97.27
2023-02-20T00:31:21.086Z,97.27
2023-02-20T00:32:11.088Z,97.27
2023-02-20T00:33:01.043Z,97.06
2023-02-20T00:33:51.055Z,97.06
2023-02-20T00:34:41.018Z,97.17
2023-02-20T00:35:31.004Z,97.38
2023-02-20T00:36:21.015Z,97.38
2023-02-20T00:37:10.995Z,97.17
2023-02-20T00:38:01.001Z,97.06
2023-02-20T00:38:50.964Z,97.06
2023-02-20T00:39:40.967Z,97.06
2023-02-20T00:40:30.955Z,96.86
2023-02-20T00:41:20.954Z,96.75
2023-02-20T00:42:10.943Z,96.75
2023-02-20T00:43:00.913Z,96.86
2023-02-20T00:43:50.914Z,96.96
2023-02-20T00:44:40.904Z,96.75
2023-02-20T00:45:30.894Z,96.75
2023-02-20T00:46:20.968Z,96.86
2023-02-20T00:47:10.884Z,97.06
2023-02-20T00:48:00.870Z,96.96
2023-02-20T00:48:50.888Z,96.96
2023-02-20T00:49:40.868Z,96.86
2023-02-20T00:50:30.857Z,96.96
2023-02-20T00:51:20.842Z,96.96
2023-02-20T00:52:10.845Z,97.06
2023-02-20T00:53:00.848Z,97.06
2023-02-20T00:53:50.794Z,97.06
2023-02-20T00:54:40.793Z,96.96
2023-02-20T00:55:30.786Z,96.96
2023-02-20T00:56:20.785Z,97.17
2023-02-20T00:57:10.789Z,97.17
2023-02-20T00:58:00.752Z,97.06
2023-02-20T00:58:50.758Z,97.06
2023-02-20T00:59:40.743Z,97.06
2023-02-20T01:00:30.715Z,97.11
2023-02-20T01:01:20.821Z,96.91
2023-02-20T01:02:10.720Z,96.80
2023-02-20T01:03:00.739Z,96.80
2023-02-20T01:03:50.681Z,96.70
2023-02-20T01:04:40.671Z,96.80
2023-02-20T01:05:30.660Z,96.91
2023-02-20T01:06:20.653Z,96.80
2023-02-20T01:07:10.674Z,96.70
2023-02-20T01:08:00.641Z,96.80
2023-02-20T01:08:50.620Z,96.91
2023-02-20T01:09:40.640Z,96.91
2023-02-20T01:10:30.600Z,96.91
2023-02-20T01:11:20.631Z,96.91
2023-02-20T01:12:10.612Z,97.01
2023-02-20T01:13:00.595Z,97.01
2023-02-20T01:13:50.572Z,97.11
2023-02-20T01:14:40.564Z,97.21
2023-02-20T01:15:30.566Z,97.21
2023-02-20T01:16:20.627Z,97.21
2023-02-20T01:17:10.567Z,97.21
2023-02-20T01:18:00.539Z,97.21
2023-02-20T01:18:50.518Z,97.31
2023-02-20T01:19:40.517Z,97.42
2023-02-20T01:20:30.486Z,97.42
2023-02-20T01:21:20.493Z,97.42
2023-02-20T01:22:10.507Z,97.47
2023-02-20T01:23:00.476Z,97.36
2023-02-20T01:23:50.460Z,97.36
2023-02-20T01:24:40.457Z,97.36
2023-02-20T01:25:30.436Z,97.26
2023-02-20T01:26:20.433Z,97.26
2023-02-20T01:27:10.452Z,97.36
2023-02-20T01:28:00.425Z,97.47
2023-02-20T01:28:50.404Z,97.56
2023-02-20T01:29:40.399Z,97.67
2023-02-20T01:30:30.403Z,97.67
2023-02-20T01:31:20.452Z,97.77
2023-02-20T01:32:10.402Z,97.77
2023-02-20T01:33:00.378Z,97.77
2023-02-20T01:33:50.355Z,97.77
2023-02-20T01:34:40.337Z,97.67
2023-02-20T01:35:30.337Z,97.67
2023-02-20T01:36:20.328Z,97.77
2023-02-20T01:37:10.316Z,97.77
2023-02-20T01:38:00.304Z,97.77
2023-02-20T01:38:50.284Z,97.77
2023-02-20T01:39:40.286Z,98.19
2023-02-20T01:40:30.286Z,98.19
2023-02-20T01:41:20.281Z,98.08
2023-02-20T01:42:10.268Z,97.98
2023-02-20T01:43:00.268Z,97.77
2023-02-20T01:43:50.239Z,97.77
2023-02-20T01:44:40.238Z,97.77
2023-02-20T01:45:30.238Z,97.77
2023-02-20T01:46:20.218Z,97.77
2023-02-20T01:47:10.217Z,97.77
2023-02-20T01:48:00.202Z,97.88
2023-02-20T01:48:50.176Z,97.98
2023-02-20T01:49:40.185Z,97.98
2023-02-20T01:50:30.172Z,98.08
2023-02-20T01:51:20.168Z,98.08
2023-02-20T01:52:10.163Z,98.08
2023-02-20T01:53:00.137Z,98.19
2023-02-20T01:53:50.117Z,98.19
2023-02-20T01:54:40.117Z,98.29
2023-02-20T01:55:30.120Z,98.33
2023-02-20T01:56:20.096Z,98.44
2023-02-20T01:57:10.103Z,98.44
2023-02-20T01:58:00.095Z,98.54
2023-02-20T01:58:50.078Z,98.54
2023-02-20T01:59:40.068Z,98.54
2023-02-20T02:00:30.094Z,98.54
2023-02-20T02:01:20.039Z,98.54
2023-02-20T02:02:10.089Z,98.54
2023-02-20T02:03:00.022Z,98.65
2023-02-20T02:03:50.023Z,98.65
2023-02-20T02:04:40.014Z,98.75
2023-02-20T02:05:30.021Z,98.75
2023-02-20T02:06:19.985Z,98.85
2023-02-20T02:07:09.994Z,98.85
2023-02-20T02:07:59.976Z,98.85
2023-02-20T02:08:49.946Z,98.96
2023-02-20T02:09:39.968Z,99.00
2023-02-20T02:10:29.944Z,99.21
2023-02-20T02:11:19.937Z,99.31
2023-02-20T02:12:09.947Z,99.41
2023-02-20T02:12:59.904Z,99.52
2023-02-20T02:13:49.902Z,99.62
2023-02-20T02:14:39.910Z,99.72
2023-02-20T02:15:29.870Z,99.72
2023-02-20T02:16:19.929Z,99.87
2023-02-20T02:17:09.879Z,99.87
2023-02-20T02:17:59.852Z,99.98
2023-02-20T02:18:49.843Z,99.99
2023-02-20T02:19:39.851Z,99.99
2023-02-20T02:20:29.819Z,99.99
2023-02-20T02:21:19.822Z,99.99
2023-02-20T02:22:09.830Z,99.99
2023-02-20T02:22:59.806Z,99.99
2023-02-20T02:23:49.775Z,99.99
2023-02-20T02:24:39.777Z,99.99
2023-02-20T02:25:29.796Z,99.99
2023-02-20T02:26:19.753Z,99.99
2023-02-20T02:27:09.765Z,99.99
2023-02-20T02:27:59.746Z,99.99
2023-02-20T02:28:49.723Z,99.99
2023-02-20T02:29:39.731Z,99.99
2023-02-20T02:30:29.729Z,99.99
2023-02-20T02:31:19.855Z,99.99
2023-02-20T02:32:09.714Z,99.99
2023-02-20T02:32:59.673Z,99.99
2023-02-20T02:33:49.669Z,99.99
2023-02-20T02:34:39.642Z,99.99
2023-02-20T02:35:30.040Z,99.99
2023-02-20T02:36:19.631Z,99.99
2023-02-20T02:37:09.648Z,99.99
2023-02-20T02:37:59.610Z,99.99
2023-02-20T02:38:49.631Z,99.99
2023-02-20T02:39:39.618Z,99.99
2023-02-20T02:40:29.600Z,99.99
2023-02-20T02:41:19.578Z,99.99
2023-02-20T02:42:09.612Z,99.99
2023-02-20T02:42:59.566Z,99.99
2023-02-20T02:43:49.604Z,99.99
2023-02-20T02:44:39.549Z,99.99
2023-02-20T02:45:29.548Z,99.99
2023-02-20T02:46:19.519Z,99.99
2023-02-20T02:47:09.548Z,99.99
2023-02-20T02:47:59.512Z,99.99
2023-02-20T02:48:49.499Z,99.99
2023-02-20T02:49:39.500Z,99.99
2023-02-20T02:50:29.492Z,99.99
2023-02-20T02:51:19.470Z,99.99
2023-02-20T02:52:09.518Z,99.99
2023-02-20T02:52:59.451Z,99.99
2023-02-20T02:53:49.451Z,99.99
2023-02-20T02:54:39.450Z,99.99
2023-02-20T02:55:29.429Z,99.99
2023-02-20T02:56:19.410Z,99.99
2023-02-20T02:57:09.430Z,99.99
2023-02-20T02:57:59.390Z,99.99
2023-02-20T02:58:49.396Z,99.99
2023-02-20T02:59:39.388Z,99.99
2023-02-20T03:00:29.370Z,99.99
2023-02-20T03:01:19.412Z,99.99
2023-02-20T03:02:09.404Z,99.99
2023-02-20T03:02:59.363Z,99.99
2023-02-20T03:03:49.329Z,99.99
2023-02-20T03:04:39.319Z,99.99
2023-02-20T03:05:29.308Z,99.99
2023-02-20T03:06:19.318Z,99.99
2023-02-20T03:07:09.321Z,99.99
2023-02-20T03:07:59.291Z,99.99
2023-02-20T03:08:49.269Z,99.99
2023-02-20T03:09:39.270Z,99.99
2023-02-20T03:10:29.275Z,99.99
2023-02-20T03:11:19.254Z,99.99
2023-02-20T03:12:09.281Z,99.99
2023-02-20T03:12:59.237Z,99.99
2023-02-20T03:13:49.244Z,99.99
2023-02-20T03:14:39.225Z,99.99
2023-02-20T03:15:29.198Z,99.99
2023-02-20T03:16:19.240Z,99.99
2023-02-20T03:17:09.209Z,99.99
2023-02-20T03:17:59.188Z,99.99
2023-02-20T03:18:49.175Z,99.99
2023-02-20T03:19:39.158Z,99.99
2023-02-20T03:20:29.148Z,99.99
2023-02-20T03:21:19.140Z,99.99
2023-02-20T03:22:09.155Z,99.99
2023-02-20T03:22:59.130Z,99.99
2023-02-20T03:23:49.131Z,99.99
2023-02-20T03:24:39.101Z,99.99
2023-02-20T03:25:29.112Z,99.99
2023-02-20T03:26:19.296Z,99.99
2023-02-20T03:27:09.108Z,99.99
2023-02-20T03:27:59.091Z,99.99
2023-02-20T03:28:49.057Z,99.99
2023-02-20T03:29:39.041Z,99.99
2023-02-20T03:30:29.112Z,99.99
2023-02-20T03:31:19.193Z,99.99
2023-02-20T03:32:09.056Z,99.99
2023-02-20T03:32:59.021Z,99.99
2023-02-20T03:33:49.018Z,99.99
2023-02-20T03:34:39.009Z,99.99
2023-02-20T03:35:28.989Z,99.99
2023-02-20T03:36:18.980Z,99.99
2023-02-20T03:37:08.989Z,99.99
2023-02-20T03:37:58.954Z,99.99
2023-02-20T03:38:48.958Z,99.99
2023-02-20T03:39:38.958Z,99.99
2023-02-20T03:40:28.928Z,99.99
2023-02-20T03:41:18.921Z,99.99
2023-02-20T03:42:08.938Z,99.99
2023-02-20T03:42:58.907Z,99.99
2023-02-20T03:43:48.913Z,99.99
2023-02-20T03:44:38.901Z,99.99
2023-02-20T03:45:28.887Z,99.99
2023-02-20T03:46:18.905Z,99.99
2023-02-20T03:47:08.867Z,99.99
2023-02-20T03:47:58.845Z,99.99
2023-02-20T03:48:48.857Z,99.99
2023-02-20T03:49:38.829Z,99.99
2023-02-20T03:50:28.827Z,99.99
2023-02-20T03:51:18.819Z,99.99
2023-02-20T03:52:08.822Z,99.99
2023-02-20T03:52:58.791Z,99.99
2023-02-20T03:53:48.797Z,99.99
2023-02-20T03:54:38.795Z,99.99
2023-02-20T03:55:28.778Z,99.99
2023-02-20T03:56:18.746Z,99.99
2023-02-20T03:57:08.778Z,99.99
2023-02-20T03:57:58.736Z,99.99
2023-02-20T03:58:48.728Z,99.99
2023-02-20T03:59:38.748Z,99.99
2023-02-20T04:00:28.714Z,99.99
2023-02-20T04:01:18.738Z,99.99
2023-02-20T04:02:08.723Z,99.99
2023-02-20T04:02:58.699Z,99.99
2023-02-20T04:03:48.664Z,99.99
2023-02-20T04:04:38.678Z,99.99
2023-02-20T04:05:28.663Z,99.99
2023-02-20T04:06:18.654Z,99.99
2023-02-20T04:07:08.663Z,99.99
2023-02-20T04:07:58.614Z,99.99
2023-02-20T04:08:48.626Z,99.99
2023-02-20T04:09:38.614Z,99.99
2023-02-20T04:10:28.623Z,99.99
2023-02-20T04:11:18.581Z,99.99
2023-02-20T04:12:08.596Z,99.99
2023-02-20T04:12:58.581Z,99.99
2023-02-20T04:13:48.561Z,99.99
2023-02-20T04:14:38.566Z,99.99
2023-02-20T04:15:28.544Z,99.99
2023-02-20T04:16:18.559Z,99.99
2023-02-20T04:17:08.550Z,99.99
2023-02-20T04:17:58.513Z,99.99
2023-02-20T04:18:48.513Z,99.99
2023-02-20T04:19:38.511Z,99.99
2023-02-20T04:20:28.500Z,99.99
2023-02-20T04:21:18.480Z,99.99
2023-02-20T04:22:08.499Z,99.99
2023-02-20T04:22:58.475Z,99.99
2023-02-20T04:23:48.457Z,99.99
2023-02-20T04:24:38.429Z,99.99
2023-02-20T04:25:28.453Z,99.99
2023-02-20T04:26:18.433Z,99.99
2023-02-20T04:27:08.428Z,99.99
2023-02-20T04:27:58.417Z,99.99
2023-02-20T04:28:48.410Z,99.99
2023-02-20T04:29:38.387Z,99.99
2023-02-20T04:30:28.430Z,99.99
2023-02-20T04:31:18.610Z,99.99
2023-02-20T04:32:08.376Z,99.99
2023-02-20T04:32:58.335Z,99.99
2023-02-20T04:33:48.351Z,99.99
2023-02-20T04:34:38.331Z,99.99
2023-02-20T04:35:28.317Z,99.99
2023-02-20T04:36:18.301Z,99.99
2023-02-20T04:37:08.332Z,99.99
2023-02-20T04:37:58.300Z,99.99
2023-02-20T04:38:48.281Z,99.99
2023-02-20T04:39:38.270Z,99.99
2023-02-20T04:40:28.269Z,99.99
2023-02-20T04:41:18.260Z,99.99
2023-02-20T04:42:08.258Z,99.99
2023-02-20T04:42:58.245Z,99.99
2023-02-20T04:43:48.237Z,99.99
2023-02-20T04:44:38.210Z,99.99
2023-02-20T04:45:28.211Z,99.99
2023-02-20T04:46:18.231Z,99.99
2023-02-20T04:47:08.219Z,99.99
2023-02-20T04:47:58.168Z,99.99
2023-02-20T04:48:48.180Z,99.99
2023-02-20T04:49:38.166Z,99.99
2023-02-20T04:50:28.149Z,99.99
2023-02-20T04:51:18.126Z,99.99
2023-02-20T04:52:08.158Z,99.99
2023-02-20T04:52:58.119Z,99.99
2023-02-20T04:53:48.125Z,99.99
2023-02-20T04:54:38.126Z,99.99
2023-02-20T04:55:28.109Z,99.99
2023-02-20T04:56:18.085Z,99.99
2023-02-20T04:57:08.090Z,99.99
2023-02-20T04:57:58.095Z,99.99
2023-02-20T04:58:48.053Z,99.99
2023-02-20T04:59:38.033Z,99.99
2023-02-20T05:00:28.039Z,99.99
2023-02-20T05:01:18.039Z,99.99
2023-02-20T05:02:10.064Z,99.99
2023-02-20T05:02:58.005Z,99.99
2023-02-20T05:03:47.998Z,99.99
2023-02-20T05:04:38.057Z,99.99
2023-02-20T05:05:27.985Z,99.99
2023-02-20T05:06:17.964Z,99.99
2023-02-20T05:07:07.992Z,99.99
2023-02-20T05:07:57.945Z,99.99
2023-02-20T05:08:50.123Z,99.99
2023-02-20T05:09:37.945Z,99.99
2023-02-20T05:10:27.930Z,99.99
2023-02-20T05:11:17.931Z,99.99
2023-02-20T05:12:07.918Z,99.99
2023-02-20T05:12:57.909Z,99.99
2023-02-20T05:13:47.898Z,99.99
2023-02-20T05:14:37.892Z,99.99
2023-02-20T05:15:27.886Z,99.99
2023-02-20T05:16:17.873Z,99.99
2023-02-20T05:17:07.891Z,99.99
2023-02-20T05:17:57.861Z,99.99
2023-02-20T05:18:47.853Z,99.99
2023-02-20T05:19:37.823Z,99.99
2023-02-20T05:20:27.828Z,99.99
2023-02-20T05:21:17.830Z,99.99
2023-02-20T05:22:07.859Z,99.99
2023-02-20T05:22:57.784Z,99.99
2023-02-20T05:23:47.794Z,99.99
2023-02-20T05:24:37.771Z,99.99
2023-02-20T05:25:27.782Z,99.99
2023-02-20T05:26:17.771Z,99.99
2023-02-20T05:27:07.752Z,99.99
2023-02-20T05:27:57.734Z,99.99
2023-02-20T05:28:47.730Z,99.99
2023-02-20T05:29:37.728Z,99.99
2023-02-20T05:30:27.766Z,99.99
2023-02-20T05:31:18.211Z,99.99
2023-02-20T05:32:07.776Z,99.99
2023-02-20T05:32:57.680Z,99.99
2023-02-20T05:33:47.669Z,99.99
2023-02-20T05:34:37.661Z,99.99
2023-02-20T05:35:27.671Z,99.99
2023-02-20T05:36:17.648Z,99.99
2023-02-20T05:37:07.650Z,99.99
2023-02-20T05:37:57.631Z,99.99
2023-02-20T05:38:47.611Z,99.99
2023-02-20T05:39:37.610Z,99.99
2023-02-20T05:40:27.602Z,99.99
2023-02-20T05:41:17.602Z,99.99
2023-02-20T05:42:07.587Z,99.99
2023-02-20T05:42:57.559Z,99.99
2023-02-20T05:43:47.569Z,99.99
2023-02-20T05:44:37.556Z,99.99
2023-02-20T05:45:27.536Z,99.99
2023-02-20T05:46:17.594Z,99.99
2023-02-20T05:47:07.537Z,99.99
2023-02-20T05:47:57.514Z,99.99
2023-02-20T05:48:47.538Z,99.99
2023-02-20T05:49:37.489Z,99.99
2023-02-20T05:50:27.497Z,99.99
2023-02-20T05:51:17.466Z,99.99
2023-02-20T05:52:07.495Z,99.99
2023-02-20T05:52:57.447Z,99.99
2023-02-20T05:53:47.445Z,99.99
2023-02-20T05:54:37.446Z,99.99
2023-02-20T05:55:27.425Z,99.99
2023-02-20T05:56:17.415Z,99.99
2023-02-20T05:57:07.425Z,99.99
2023-02-20T05:57:57.406Z,99.99
2023-02-20T05:58:47.384Z,99.99
2023-02-20T05:59:37.399Z,99.99
2023-02-20T06:00:27.378Z,99.99
2023-02-20T06:01:17.373Z,99.99
2023-02-20T06:02:07.366Z,99.99
2023-02-20T06:02:57.346Z,99.99
2023-02-20T06:03:47.379Z,99.99
2023-02-20T06:04:37.369Z,99.99
2023-02-20T06:05:27.324Z,99.99
2023-02-20T06:06:17.317Z,99.99
2023-02-20T06:07:07.302Z,99.99
2023-02-20T06:07:57.283Z,99.99
2023-02-20T06:08:47.295Z,99.99
2023-02-20T06:09:37.288Z,99.99
2023-02-20T06:10:27.263Z,99.99
2023-02-20T06:11:17.256Z,99.99
2023-02-20T06:12:07.270Z,99.99
2023-02-20T06:12:57.229Z,99.99
2023-02-20T06:13:47.210Z,99.99
2023-02-20T06:14:37.239Z,99.99
2023-02-20T06:15:27.192Z,99.99
2023-02-20T06:16:17.211Z,99.99
2023-02-20T06:17:07.190Z,99.99
2023-02-20T06:17:57.189Z,99.99
2023-02-20T06:18:47.158Z,99.99
2023-02-20T06:19:37.181Z,99.99
2023-02-20T06:20:27.164Z,99.99
2023-02-20T06:21:17.151Z,99.99
2023-02-20T06:22:07.178Z,99.99
2023-02-20T06:22:57.118Z,99.99
2023-02-20T06:23:47.128Z,99.99
2023-02-20T06:24:37.117Z,99.99
2023-02-20T06:25:27.089Z,99.99
2023-02-20T06:26:17.100Z,99.99
2023-02-20T06:27:07.096Z,99.99
2023-02-20T06:27:57.077Z,99.99
2023-02-20T06:28:47.073Z,99.99
2023-02-20T06:29:37.061Z,99.99
2023-02-20T06:30:27.065Z,99.99
2023-02-20T06:31:17.067Z,99.99
2023-02-20T06:32:07.141Z,99.99
2023-02-20T06:32:57.021Z,99.99
2023-02-20T06:33:47.014Z,99.99
2023-02-20T06:34:36.994Z,99.99
2023-02-20T06:35:26.997Z,99.99
2023-02-20T06:36:17.001Z,99.99
2023-02-20T06:37:07.002Z,99.99
2023-02-20T06:37:57.019Z,99.99
2023-02-20T06:38:46.940Z,99.99
2023-02-20T06:39:36.936Z,99.99
2023-02-20T06:40:26.933Z,99.99
2023-02-20T06:41:16.940Z,99.99
2023-02-20T06:42:06.923Z,99.99
2023-02-20T06:42:56.923Z,99.99
2023-02-20T06:43:46.908Z,99.99
2023-02-20T06:44:36.887Z,99.99
2023-02-20T06:45:26.881Z,99.99
2023-02-20T06:46:16.898Z,99.99
2023-02-20T06:47:06.893Z,99.99
2023-02-20T06:47:56.862Z,99.99
2023-02-20T06:48:46.850Z,99.99
2023-02-20T06:49:36.837Z,99.99
2023-02-20T06:50:26.823Z,99.99
2023-02-20T06:51:16.824Z,99.99
2023-02-20T06:52:06.867Z,99.99
2023-02-20T06:52:56.790Z,99.99
2023-02-20T06:53:46.814Z,99.99
2023-02-20T06:54:36.808Z,99.99
2023-02-20T06:55:26.764Z,99.99
2023-02-20T06:56:16.783Z,99.99
2023-02-20T06:57:06.766Z,99.99
2023-02-20T06:57:56.740Z,99.99
2023-02-20T06:58:46.729Z,99.99
2023-02-20T06:59:36.738Z,99.99
2023-02-20T07:00:26.709Z,99.99
2023-02-20T07:01:16.710Z,99.99
2023-02-20T07:02:06.739Z,99.99
2023-02-20T07:02:56.699Z,99.99
2023-02-20T07:03:46.673Z,99.99
2023-02-20T07:04:36.668Z,99.99
2023-02-20T07:05:26.647Z,99.99
2023-02-20T07:06:16.681Z,99.99
2023-02-20T07:07:06.669Z,99.99
2023-02-20T07:07:56.633Z,99.99
2023-02-20T07:08:46.610Z,99.99
2023-02-20T07:09:36.612Z,99.99
2023-02-20T07:10:26.604Z,99.99
2023-02-20T07:11:16.596Z,99.99
2023-02-20T07:12:06.609Z,99.99
2023-02-20T07:12:56.585Z,99.99
2023-02-20T07:13:46.566Z,99.99
2023-02-20T07:14:36.566Z,99.99
2023-02-20T07:15:26.538Z,99.99
2023-02-20T07:16:16.798Z,99.99
2023-02-20T07:17:06.547Z,99.99
2023-02-20T07:17:56.535Z,99.99
2023-02-20T07:18:46.524Z,99.99
2023-02-20T07:19:36.515Z,99.99
2023-02-20T07:20:26.508Z,99.99
2023-02-20T07:21:16.500Z,99.99
2023-02-20T07:22:06.483Z,99.99
2023-02-20T07:22:56.460Z,99.99
2023-02-20T07:23:46.445Z,99.99
2023-02-20T07:24:36.462Z,99.99
2023-02-20T07:25:26.443Z,99.99
2023-02-20T07:26:16.445Z,99.99
2023-02-20T07:27:11.602Z,99.99
2023-02-20T07:27:56.410Z,99.99
2023-02-20T07:28:46.411Z,99.99
2023-02-20T07:29:36.390Z,99.99
2023-02-20T07:30:26.397Z,99.99
2023-02-20T07:31:16.481Z,99.99
2023-02-20T07:32:06.500Z,99.99
2023-02-20T07:32:56.343Z,99.99
2023-02-20T07:33:46.350Z,99.99
2023-02-20T07:34:36.340Z,99.99
2023-02-20T07:35:26.340Z,99.99
2023-02-20T07:36:16.329Z,99.99
2023-02-20T07:37:06.330Z,99.99
2023-02-20T07:37:56.288Z,99.99
2023-02-20T07:38:46.309Z,99.99
2023-02-20T07:39:36.279Z,99.99
2023-02-20T07:40:26.280Z,99.99
2023-02-20T07:41:16.257Z,99.99
2023-02-20T07:42:06.268Z,99.99
2023-02-20T07:42:56.230Z,99.99
2023-02-20T07:43:46.226Z,99.99
2023-02-20T07:44:36.243Z,99.99
2023-02-20T07:45:26.244Z,99.99
2023-02-20T07:46:18.974Z,99.99
2023-02-20T07:47:06.227Z,99.99
2023-02-20T07:47:56.194Z,99.99
2023-02-20T07:48:46.186Z,99.99
2023-02-20T07:49:36.175Z,99.99
2023-02-20T07:50:26.176Z,99.99
2023-02-20T07:51:16.136Z,99.99
2023-02-20T07:52:06.156Z,99.99
2023-02-20T07:52:56.143Z,99.99
2023-02-20T07:53:46.125Z,99.99
2023-02-20T07:54:36.104Z,99.99
2023-02-20T07:55:26.120Z,99.99
2023-02-20T07:56:16.105Z,99.99
2023-02-20T07:57:06.104Z,99.99
2023-02-20T07:57:56.090Z,99.99
2023-02-20T07:58:46.066Z,99.99
2023-02-20T07:59:36.062Z,99.99
2023-02-20T08:00:26.057Z,99.99
2023-02-20T08:01:16.083Z,99.99
2023-02-20T08:02:06.022Z,99.99
2023-02-20T08:02:56.040Z,99.99
2023-02-20T08:03:46.005Z,99.99
2023-02-20T08:04:36.003Z,99.99
2023-02-20T08:05:26.017Z,99.99
2023-02-20T08:06:15.974Z,99.99
2023-02-20T08:07:05.992Z,99.99
2023-02-20T08:07:55.978Z,99.99
2023-02-20T08:08:45.951Z,99.99
2023-02-20T08:09:35.972Z,99.99
2023-02-20T08:10:25.929Z,99.99
2023-02-20T08:11:15.917Z,99.99
2023-02-20T08:12:05.919Z,99.99
2023-02-20T08:12:55.917Z,99.99
2023-02-20T08:13:45.902Z,99.99
2023-02-20T08:14:35.877Z,99.99
2023-02-20T08:15:25.888Z,99.99
2023-02-20T08:16:16.284Z,99.99
2023-02-20T08:17:05.884Z,99.99
2023-02-20T08:17:55.857Z,99.99
2023-02-20T08:18:45.857Z,99.99
2023-02-20T08:19:35.844Z,99.99
2023-02-20T08:20:25.839Z,99.99
2023-02-20T08:21:15.829Z,99.99
2023-02-20T08:22:05.803Z,99.99
2023-02-20T08:22:55.816Z,99.99
2023-02-20T08:23:45.805Z,99.99
2023-02-20T08:24:35.777Z,99.99
2023-02-20T08:25:25.764Z,99.99
2023-02-20T08:26:16.041Z,99.99
2023-02-20T08:27:05.754Z,99.99
2023-02-20T08:27:55.765Z,99.99
2023-02-20T08:28:45.748Z,99.99
2023-02-20T08:29:35.719Z,99.99
2023-02-20T08:30:25.759Z,99.99
2023-02-20T08:31:30.803Z,99.99
2023-02-20T08:32:06.875Z,99.99
2023-02-20T08:32:55.859Z,99.99
2023-02-20T08:33:45.662Z,99.99
2023-02-20T08:34:35.696Z,99.99
2023-02-20T08:35:25.688Z,99.99
2023-02-20T08:36:15.645Z,99.99
2023-02-20T08:37:05.650Z,99.99
2023-02-20T08:37:55.632Z,99.99
2023-02-20T08:38:45.624Z,99.99
2023-02-20T08:39:35.630Z,99.99
2023-02-20T08:40:25.610Z,99.99
2023-02-20T08:41:15.580Z,99.99
2023-02-20T08:42:05.588Z,99.99
2023-02-20T08:42:55.607Z,99.99
2023-02-20T08:43:45.560Z,99.99
2023-02-20T08:44:35.549Z,99.99
2023-02-20T08:45:25.554Z,99.99
2023-02-20T08:46:15.869Z,99.99
2023-02-20T08:47:05.520Z,99.99
2023-02-20T08:47:55.529Z,99.99
2023-02-20T08:48:45.515Z,99.99
2023-02-20T08:49:35.508Z,99.99
2023-02-20T08:50:25.488Z,99.99
2023-02-20T08:51:15.480Z,99.99
2023-02-20T08:52:05.477Z,99.99
2023-02-20T08:52:55.468Z,99.99
2023-02-20T08:53:45.459Z,99.99
2023-02-20T08:54:35.439Z,99.99
2023-02-20T08:55:25.507Z,99.99
2023-02-20T08:56:15.590Z,99.99
2023-02-20T08:57:05.526Z,99.99
2023-02-20T08:57:55.408Z,99.99
2023-02-20T08:58:45.386Z,99.99
2023-02-20T08:59:35.376Z,99.99
2023-02-20T09:00:25.396Z,99.99
2023-02-20T09:01:15.437Z,99.99
2023-02-20T09:02:05.365Z,99.99
2023-02-20T09:02:55.392Z,99.99
2023-02-20T09:03:45.349Z,99.99
2023-02-20T09:04:35.329Z,99.99
2023-02-20T09:05:25.326Z,99.99
2023-02-20T09:06:15.434Z,99.99
2023-02-20T09:07:05.312Z,99.99
2023-02-20T09:07:55.325Z,99.99
2023-02-20T09:08:45.304Z,99.99
2023-02-20T09:09:35.285Z,99.99
2023-02-20T09:10:25.325Z,99.99
2023-02-20T09:11:15.258Z,99.99
2023-02-20T09:12:05.246Z,99.99
2023-02-20T09:12:55.246Z,99.99
2023-02-20T09:13:45.257Z,99.99
2023-02-20T09:14:35.248Z,99.99
2023-02-20T09:15:25.214Z,99.99
2023-02-20T09:16:15.563Z,99.99
2023-02-20T09:17:05.200Z,99.99
2023-02-20T09:17:55.207Z,99.99
2023-02-20T09:18:45.178Z,99.99
2023-02-20T09:19:35.176Z,99.86
2023-02-20T09:20:25.251Z,99.55
2023-02-20T09:21:15.144Z,98.99
2023-02-20T09:22:05.145Z,98.37
2023-02-20T09:22:55.164Z,97.71
2023-02-20T09:23:45.134Z,97.08
2023-02-20T09:24:35.111Z,96.56
2023-02-20T09:25:25.106Z,96.56
2023-02-20T09:26:15.331Z,97.08
2023-02-20T09:27:05.103Z,96.73
2023-02-20T09:27:55.076Z,96.21
2023-02-20T09:28:45.057Z,95.90
2023-02-20T09:29:35.058Z,95.70
2023-02-20T09:30:25.092Z,95.18
2023-02-20T09:31:15.052Z,94.72
2023-02-20T09:32:05.127Z,94.31
2023-02-20T09:32:55.024Z,93.90
2023-02-20T09:33:49.181Z,94.10
2023-02-20T09:34:36.006Z,93.85
2023-02-20T09:35:24.991Z,93.54
2023-02-20T09:36:15.350Z,93.30
2023-02-20T09:37:04.998Z,92.78
2023-02-20T09:37:54.994Z,92.57
2023-02-20T09:38:44.975Z,92.78
2023-02-20T09:39:34.944Z,92.78
2023-02-20T09:40:24.937Z,92.74
2023-02-20T09:41:14.925Z,92.74
2023-02-20T09:42:04.902Z,92.12
2023-02-20T09:42:54.935Z,91.81
2023-02-20T09:43:44.895Z,90.99
2023-02-20T09:44:34.881Z,90.12
2023-02-20T09:45:24.927Z,90.01
2023-02-20T09:46:15.369Z,90.12
2023-02-20T09:47:04.855Z,89.87
2023-02-20T09:47:54.856Z,89.46
2023-02-20T09:48:44.849Z,88.74
2023-02-20T09:49:34.851Z,89.36
2023-02-20T09:50:24.820Z,89.36
2023-02-20T09:51:14.851Z,88.84
2023-02-20T09:52:04.798Z,89.05
2023-02-20T09:52:54.801Z,89.31
2023-02-20T09:53:44.772Z,89.52
2023-02-20T09:54:34.780Z,89.22
2023-02-20T09:55:24.774Z,88.90
2023-02-20T09:56:14.900Z,88.80
2023-02-20T09:57:04.739Z,88.24
2023-02-20T09:57:54.753Z,87.73
2023-02-20T09:58:44.736Z,87.12
2023-02-20T09:59:34.723Z,86.60
2023-02-20T10:00:24.719Z,86.70
2023-02-20T10:01:14.717Z,87.07
2023-02-20T10:02:04.778Z,87.07
2023-02-20T10:02:54.802Z,87.07
2023-02-20T10:03:44.669Z,87.18
2023-02-20T10:04:34.668Z,84.47
2023-02-20T10:05:24.641Z,82.10
2023-02-20T10:06:14.745Z,82.00
2023-02-20T10:07:04.642Z,82.51
2023-02-20T10:07:54.628Z,83.29
2023-02-20T10:08:44.622Z,83.70
2023-02-20T10:09:34.615Z,83.70
2023-02-20T10:10:24.639Z,83.29
2023-02-20T10:11:14.611Z,82.47
2023-02-20T10:12:04.579Z,83.50
2023-02-20T10:12:54.587Z,82.43
2023-02-20T10:13:44.563Z,82.75
2023-02-20T10:14:34.550Z,81.71
2023-02-20T10:15:24.545Z,81.10
2023-02-20T10:16:14.865Z,81.71
2023-02-20T10:17:04.519Z,81.78
2023-02-20T10:17:54.517Z,81.88
2023-02-20T10:18:44.488Z,82.29
2023-02-20T10:19:34.498Z,80.96
2023-02-20T10:20:24.467Z,80.65
2023-02-20T10:21:14.468Z,81.02
2023-02-20T10:22:04.448Z,81.34
2023-02-20T10:22:54.480Z,80.82
2023-02-20T10:23:47.286Z,81.23
2023-02-20T10:24:34.449Z,80.92
2023-02-20T10:25:24.466Z,81.02
2023-02-20T10:26:14.689Z,81.13
2023-02-20T10:27:04.423Z,80.72
2023-02-20T10:27:54.423Z,79.49
2023-02-20T10:28:44.404Z,79.28
2023-02-20T10:29:34.377Z,79.86
2023-02-20T10:30:24.411Z,80.07
2023-02-20T10:31:14.476Z,79.45
2023-02-20T10:32:04.387Z,79.35
2023-02-20T10:32:54.440Z,79.14
2023-02-20T10:33:44.319Z,80.17
2023-02-20T10:34:34.331Z,80.64
2023-02-20T10:35:24.330Z,80.64
2023-02-20T10:36:14.660Z,79.41
2023-02-20T10:37:04.304Z,78.59
2023-02-20T10:37:54.309Z,78.49
2023-02-20T10:38:44.278Z,78.49
2023-02-20T10:39:34.312Z,78.80
2023-02-20T10:40:24.253Z,77.94
2023-02-20T10:41:14.260Z,77.94
2023-02-20T10:42:04.249Z,77.73
2023-02-20T10:42:54.265Z,77.23
2023-02-20T10:43:44.228Z,76.72